Terminal Aerodrome Forecast
Issued by NWS King Salmon, AK

Home | Current Version | Previous Version | Text Only | Print | Product List | Glossary On
Versions: 1 2 3 4 5 6 7 8 9 10 11 12 13 14 15 16
000
FTAK31 PANC 232330
TAFAKN
TAF
PAKN 232330Z 2400/2424 16022G35KT P6SM SCT120 BKN250 WS020/19050KT
     FM240500 17015KT P6SM VCSH SCT040 BKN060 WS020/20035KT
     FM240700 17010KT P6SM -RA BKN025 OVC050
     FM240900 17008KT 3SM -RA BR SCT008 OVC015
     FM241300 19005KT 2SM -SNRA BR OVC008
     FM241800 VRB05KT P6SM SCT008 BKN040=

USA.gov is the U.S. government's official web portal to all federal, state and local government web resources and services.